sensor_id;sensor_type;location;lat;lon;timestamp;P1;durP1;ratioP1;P2;durP2;ratioP2
4963;SDS011;2497;47.410;9.740;2023-02-26T00:00:57;9.10;;;2.95;;
4963;SDS011;2497;47.410;9.740;2023-02-26T00:03:24;7.35;;;2.97;;
4963;SDS011;2497;47.410;9.740;2023-02-26T00:05:57;6.33;;;3.47;;
4963;SDS011;2497;47.410;9.740;2023-02-26T00:08:25;4.10;;;3.03;;
4963;SDS011;2497;47.410;9.740;2023-02-26T00:10:55;4.80;;;3.17;;
4963;SDS011;2497;47.410;9.740;2023-02-26T00:13:25;9.40;;;2.80;;
4963;SDS011;2497;47.410;9.740;2023-02-26T00:15:53;7.55;;;3.08;;
4963;SDS011;2497;47.410;9.740;2023-02-26T00:18:23;3.60;;;2.47;;
4963;SDS011;2497;47.410;9.740;2023-02-26T00:20:53;4.90;;;2.90;;
4963;SDS011;2497;47.410;9.740;2023-02-26T00:23:21;6.85;;;2.40;;
4963;SDS011;2497;47.410;9.740;2023-02-26T00:25:50;5.72;;;2.50;;
4963;SDS011;2497;47.410;9.740;2023-02-26T00:28:18;9.80;;;3.88;;
4963;SDS011;2497;47.410;9.740;2023-02-26T00:30:46;4.93;;;2.33;;
4963;SDS011;2497;47.410;9.740;2023-02-26T00:33:15;5.55;;;3.42;;
4963;SDS011;2497;47.410;9.740;2023-02-26T00:35:42;6.05;;;3.08;;
4963;SDS011;2497;47.410;9.740;2023-02-26T00:38:12;3.55;;;2.40;;
4963;SDS011;2497;47.410;9.740;2023-02-26T00:40:43;3.20;;;2.40;;
4963;SDS011;2497;47.410;9.740;2023-02-26T00:43:13;10.57;;;2.70;;
4963;SDS011;2497;47.410;9.740;2023-02-26T00:45:43;3.65;;;2.30;;
4963;SDS011;2497;47.410;9.740;2023-02-26T00:48:29;4.68;;;2.88;;
4963;SDS011;2497;47.410;9.740;2023-02-26T00:51:10;4.30;;;2.10;;
4963;SDS011;2497;47.410;9.740;2023-02-26T00:53:48;4.07;;;2.55;;
4963;SDS011;2497;47.410;9.740;2023-02-26T00:56:20;4.40;;;2.38;;
4963;SDS011;2497;47.410;9.740;2023-02-26T00:58:47;11.48;;;2.28;;
4963;SDS011;2497;47.410;9.740;2023-02-26T01:01:14;4.60;;;2.60;;
4963;SDS011;2497;47.410;9.740;2023-02-26T01:03:42;3.78;;;2.60;;
4963;SDS011;2497;47.410;9.740;2023-02-26T01:06:10;3.78;;;2.38;;
4963;SDS011;2497;47.410;9.740;2023-02-26T01:08:42;4.50;;;2.40;;
4963;SDS011;2497;47.410;9.740;2023-02-26T01:11:15;3.78;;;2.75;;
4963;SDS011;2497;47.410;9.740;2023-02-26T01:13:46;3.90;;;2.67;;
4963;SDS011;2497;47.410;9.740;2023-02-26T01:16:15;5.30;;;2.78;;
4963;SDS011;2497;47.410;9.740;2023-02-26T01:18:50;4.00;;;2.65;;
4963;SDS011;2497;47.410;9.740;2023-02-26T01:21:27;3.67;;;2.70;;
4963;SDS011;2497;47.410;9.740;2023-02-26T01:23:59;3.47;;;2.67;;
4963;SDS011;2497;47.410;9.740;2023-02-26T01:26:32;8.02;;;2.78;;
4963;SDS011;2497;47.410;9.740;2023-02-26T01:29:00;5.72;;;2.90;;
4963;SDS011;2497;47.410;9.740;2023-02-26T01:31:37;6.05;;;2.85;;
4963;SDS011;2497;47.410;9.740;2023-02-26T01:34:09;4.55;;;2.78;;
4963;SDS011;2497;47.410;9.740;2023-02-26T01:36:45;6.13;;;3.08;;
4963;SDS011;2497;47.410;9.740;2023-02-26T01:39:19;7.70;;;3.90;;
4963;SDS011;2497;47.410;9.740;2023-02-26T01:41:56;8.38;;;3.13;;
4963;SDS011;2497;47.410;9.740;2023-02-26T01:44:29;5.90;;;2.78;;
4963;SDS011;2497;47.410;9.740;2023-02-26T01:47:14;3.78;;;2.53;;
4963;SDS011;2497;47.410;9.740;2023-02-26T01:49:43;4.80;;;3.17;;
4963;SDS011;2497;47.410;9.740;2023-02-26T01:55:26;3.97;;;2.90;;
4963;SDS011;2497;47.410;9.740;2023-02-26T01:57:57;4.50;;;3.00;;
4963;SDS011;2497;47.410;9.740;2023-02-26T02:00:26;4.95;;;2.67;;
4963;SDS011;2497;47.410;9.740;2023-02-26T02:02:55;4.40;;;3.00;;
4963;SDS011;2497;47.410;9.740;2023-02-26T02:05:24;6.15;;;3.00;;
4963;SDS011;2497;47.410;9.740;2023-02-26T02:07:54;6.78;;;3.35;;
4963;SDS011;2497;47.410;9.740;2023-02-26T02:10:23;4.60;;;2.60;;
4963;SDS011;2497;47.410;9.740;2023-02-26T02:12:51;6.30;;;3.20;;
4963;SDS011;2497;47.410;9.740;2023-02-26T02:15:29;4.32;;;2.90;;
4963;SDS011;2497;47.410;9.740;2023-02-26T02:18:07;6.50;;;3.40;;
4963;SDS011;2497;47.410;9.740;2023-02-26T02:23:59;12.32;;;3.90;;
4963;SDS011;2497;47.410;9.740;2023-02-26T02:26:43;4.53;;;2.85;;
4963;SDS011;2497;47.410;9.740;2023-02-26T02:32:39;5.35;;;3.40;;
4963;SDS011;2497;47.410;9.740;2023-02-26T02:35:13;5.65;;;3.40;;
4963;SDS011;2497;47.410;9.740;2023-02-26T02:37:46;6.85;;;3.70;;
4963;SDS011;2497;47.410;9.740;2023-02-26T02:40:20;7.95;;;3.08;;
4963;SDS011;2497;47.410;9.740;2023-02-26T02:42:51;3.58;;;2.50;;
4963;SDS011;2497;47.410;9.740;2023-02-26T02:45:23;5.45;;;2.90;;
4963;SDS011;2497;47.410;9.740;2023-02-26T02:47:58;7.22;;;3.20;;
4963;SDS011;2497;47.410;9.740;2023-02-26T02:50:30;8.23;;;2.65;;
4963;SDS011;2497;47.410;9.740;2023-02-26T02:53:01;6.20;;;3.42;;
4963;SDS011;2497;47.410;9.740;2023-02-26T02:55:33;8.00;;;3.72;;
4963;SDS011;2497;47.410;9.740;2023-02-26T02:58:03;5.13;;;3.20;;
4963;SDS011;2497;47.410;9.740;2023-02-26T03:00:34;4.80;;;2.95;;
4963;SDS011;2497;47.410;9.740;2023-02-26T03:03:08;4.95;;;3.25;;
4963;SDS011;2497;47.410;9.740;2023-02-26T03:05:41;6.80;;;3.20;;
4963;SDS011;2497;47.410;9.740;2023-02-26T03:08:10;4.32;;;3.40;;
4963;SDS011;2497;47.410;9.740;2023-02-26T03:10:39;6.53;;;3.80;;
4963;SDS011;2497;47.410;9.740;2023-02-26T03:13:10;6.88;;;3.75;;
4963;SDS011;2497;47.410;9.740;2023-02-26T03:15:44;4.00;;;2.50;;
4963;SDS011;2497;47.410;9.740;2023-02-26T03:18:23;4.57;;;2.90;;
4963;SDS011;2497;47.410;9.740;2023-02-26T03:21:02;7.57;;;3.88;;
4963;SDS011;2497;47.410;9.740;2023-02-26T03:23:34;9.30;;;3.88;;
4963;SDS011;2497;47.410;9.740;2023-02-26T03:26:08;11.18;;;4.20;;
4963;SDS011;2497;47.410;9.740;2023-02-26T03:28:39;8.07;;;3.75;;
4963;SDS011;2497;47.410;9.740;2023-02-26T03:31:14;7.82;;;2.92;;
4963;SDS011;2497;47.410;9.740;2023-02-26T03:33:49;7.45;;;2.92;;
4963;SDS011;2497;47.410;9.740;2023-02-26T03:36:21;5.40;;;3.40;;
4963;SDS011;2497;47.410;9.740;2023-02-26T03:38:53;4.43;;;3.08;;
4963;SDS011;2497;47.410;9.740;2023-02-26T03:41:26;7.43;;;3.88;;
4963;SDS011;2497;47.410;9.740;2023-02-26T03:43:59;12.05;;;3.60;;
4963;SDS011;2497;47.410;9.740;2023-02-26T03:46:30;6.90;;;2.72;;
4963;SDS011;2497;47.410;9.740;2023-02-26T03:49:03;7.03;;;3.47;;
4963;SDS011;2497;47.410;9.740;2023-02-26T03:51:34;4.15;;;3.40;;
4963;SDS011;2497;47.410;9.740;2023-02-26T03:54:04;5.97;;;3.35;;
4963;SDS011;2497;47.410;9.740;2023-02-26T03:56:36;7.15;;;3.47;;
4963;SDS011;2497;47.410;9.740;2023-02-26T03:59:07;8.35;;;3.50;;
4963;SDS011;2497;47.410;9.740;2023-02-26T04:01:46;7.80;;;4.43;;
4963;SDS011;2497;47.410;9.740;2023-02-26T04:04:20;6.70;;;4.05;;
4963;SDS011;2497;47.410;9.740;2023-02-26T04:06:50;10.10;;;4.60;;
4963;SDS011;2497;47.410;9.740;2023-02-26T04:09:19;7.35;;;4.30;;
4963;SDS011;2497;47.410;9.740;2023-02-26T04:11:47;4.80;;;3.83;;
4963;SDS011;2497;47.410;9.740;2023-02-26T04:14:15;3.90;;;2.85;;
4963;SDS011;2497;47.410;9.740;2023-02-26T04:16:48;8.90;;;3.15;;
4963;SDS011;2497;47.410;9.740;2023-02-26T04:19:15;5.95;;;3.88;;
4963;SDS011;2497;47.410;9.740;2023-02-26T04:21:43;7.90;;;3.42;;
4963;SDS011;2497;47.410;9.740;2023-02-26T04:24:11;6.68;;;3.20;;
4963;SDS011;2497;47.410;9.740;2023-02-26T04:26:38;8.20;;;3.25;;
4963;SDS011;2497;47.410;9.740;2023-02-26T04:29:05;7.47;;;3.72;;
4963;SDS011;2497;47.410;9.740;2023-02-26T04:31:32;6.57;;;3.60;;
4963;SDS011;2497;47.410;9.740;2023-02-26T04:34:00;4.60;;;3.20;;
4963;SDS011;2497;47.410;9.740;2023-02-26T04:36:27;4.82;;;3.53;;
4963;SDS011;2497;47.410;9.740;2023-02-26T04:38:56;6.28;;;3.25;;
4963;SDS011;2497;47.410;9.740;2023-02-26T04:41:23;5.25;;;3.08;;
4963;SDS011;2497;47.410;9.740;2023-02-26T04:43:50;5.55;;;2.85;;
4963;SDS011;2497;47.410;9.740;2023-02-26T04:46:17;6.35;;;3.00;;
4963;SDS011;2497;47.410;9.740;2023-02-26T04:48:45;4.32;;;2.70;;
4963;SDS011;2497;47.410;9.740;2023-02-26T04:51:12;4.10;;;2.50;;
4963;SDS011;2497;47.410;9.740;2023-02-26T04:53:39;4.30;;;2.67;;
4963;SDS011;2497;47.410;9.740;2023-02-26T04:56:08;3.42;;;2.17;;
4963;SDS011;2497;47.410;9.740;2023-02-26T04:58:35;6.05;;;2.80;;
4963;SDS011;2497;47.410;9.740;2023-02-26T05:01:02;3.55;;;2.47;;
4963;SDS011;2497;47.410;9.740;2023-02-26T05:03:29;5.35;;;2.88;;
4963;SDS011;2497;47.410;9.740;2023-02-26T05:05:57;4.07;;;2.50;;
4963;SDS011;2497;47.410;9.740;2023-02-26T05:08:24;3.60;;;2.35;;
4963;SDS011;2497;47.410;9.740;2023-02-26T05:10:51;3.45;;;2.30;;
4963;SDS011;2497;47.410;9.740;2023-02-26T05:13:20;2.45;;;2.22;;
4963;SDS011;2497;47.410;9.740;2023-02-26T05:15:47;7.32;;;3.28;;
4963;SDS011;2497;47.410;9.740;2023-02-26T05:18:14;6.53;;;2.75;;
4963;SDS011;2497;47.410;9.740;2023-02-26T05:20:41;7.57;;;3.63;;
4963;SDS011;2497;47.410;9.740;2023-02-26T05:23:08;6.07;;;3.08;;
4963;SDS011;2497;47.410;9.740;2023-02-26T05:25:35;4.20;;;2.85;;
4963;SDS011;2497;47.410;9.740;2023-02-26T05:28:03;4.78;;;2.70;;
4963;SDS011;2497;47.410;9.740;2023-02-26T05:30:31;5.50;;;2.67;;
4963;SDS011;2497;47.410;9.740;2023-02-26T05:32:59;4.15;;;3.05;;
4963;SDS011;2497;47.410;9.740;2023-02-26T05:35:26;7.05;;;3.35;;
4963;SDS011;2497;47.410;9.740;2023-02-26T05:37:53;6.70;;;3.92;;
4963;SDS011;2497;47.410;9.740;2023-02-26T05:40:20;3.28;;;2.53;;
4963;SDS011;2497;47.410;9.740;2023-02-26T05:42:47;5.97;;;2.33;;
4963;SDS011;2497;47.410;9.740;2023-02-26T05:45:16;3.35;;;2.25;;
4963;SDS011;2497;47.410;9.740;2023-02-26T05:47:45;3.03;;;2.72;;
4963;SDS011;2497;47.410;9.740;2023-02-26T05:50:12;4.30;;;2.70;;
4963;SDS011;2497;47.410;9.740;2023-02-26T05:52:39;3.60;;;2.95;;
4963;SDS011;2497;47.410;9.740;2023-02-26T05:55:07;2.97;;;2.55;;
4963;SDS011;2497;47.410;9.740;2023-02-26T05:57:35;2.95;;;2.15;;
4963;SDS011;2497;47.410;9.740;2023-02-26T06:00:02;3.17;;;2.03;;
4963;SDS011;2497;47.410;9.740;2023-02-26T06:02:30;6.72;;;2.75;;
4963;SDS011;2497;47.410;9.740;2023-02-26T06:04:59;4.80;;;3.38;;
4963;SDS011;2497;47.410;9.740;2023-02-26T06:07:26;2.75;;;2.45;;
4963;SDS011;2497;47.410;9.740;2023-02-26T06:09:53;11.90;;;2.47;;
4963;SDS011;2497;47.410;9.740;2023-02-26T06:12:20;6.07;;;3.55;;
4963;SDS011;2497;47.410;9.740;2023-02-26T06:14:47;7.35;;;4.68;;
4963;SDS011;2497;47.410;9.740;2023-02-26T06:17:14;7.00;;;3.95;;
4963;SDS011;2497;47.410;9.740;2023-02-26T06:19:41;6.75;;;3.40;;
4963;SDS011;2497;47.410;9.740;2023-02-26T06:22:10;2.60;;;2.17;;
4963;SDS011;2497;47.410;9.740;2023-02-26T06:24:37;4.90;;;3.10;;
4963;SDS011;2497;47.410;9.740;2023-02-26T06:27:05;6.25;;;3.22;;
4963;SDS011;2497;47.410;9.740;2023-02-26T06:29:32;8.98;;;4.38;;
4963;SDS011;2497;47.410;9.740;2023-02-26T06:32:01;12.30;;;5.07;;
4963;SDS011;2497;47.410;9.740;2023-02-26T06:34:28;8.85;;;3.97;;
4963;SDS011;2497;47.410;9.740;2023-02-26T06:36:55;5.30;;;3.10;;
4963;SDS011;2497;47.410;9.740;2023-02-26T06:39:24;6.35;;;3.10;;
4963;SDS011;2497;47.410;9.740;2023-02-26T06:41:51;5.00;;;3.05;;
4963;SDS011;2497;47.410;9.740;2023-02-26T06:44:18;8.05;;;3.05;;
4963;SDS011;2497;47.410;9.740;2023-02-26T06:46:45;2.28;;;1.95;;
4963;SDS011;2497;47.410;9.740;2023-02-26T06:49:13;4.90;;;2.15;;
4963;SDS011;2497;47.410;9.740;2023-02-26T06:51:40;5.57;;;2.30;;
4963;SDS011;2497;47.410;9.740;2023-02-26T06:54:07;7.80;;;2.85;;
4963;SDS011;2497;47.410;9.740;2023-02-26T06:56:35;3.88;;;2.78;;
4963;SDS011;2497;47.410;9.740;2023-02-26T06:59:03;7.07;;;3.70;;
4963;SDS011;2497;47.410;9.740;2023-02-26T07:01:30;8.88;;;3.00;;
4963;SDS011;2497;47.410;9.740;2023-02-26T07:03:57;3.78;;;3.00;;
4963;SDS011;2497;47.410;9.740;2023-02-26T07:06:24;5.20;;;3.58;;
4963;SDS011;2497;47.410;9.740;2023-02-26T07:08:52;4.63;;;3.03;;
4963;SDS011;2497;47.410;9.740;2023-02-26T07:11:19;15.15;;;2.45;;
4963;SDS011;2497;47.410;9.740;2023-02-26T07:13:47;5.00;;;2.55;;
4963;SDS011;2497;47.410;9.740;2023-02-26T07:16:15;3.95;;;2.00;;
4963;SDS011;2497;47.410;9.740;2023-02-26T07:18:42;3.15;;;1.92;;
4963;SDS011;2497;47.410;9.740;2023-02-26T07:21:10;2.60;;;2.40;;
4963;SDS011;2497;47.410;9.740;2023-02-26T07:23:37;10.88;;;2.80;;
4963;SDS011;2497;47.410;9.740;2023-02-26T07:26:04;3.70;;;2.45;;
4963;SDS011;2497;47.410;9.740;2023-02-26T07:28:33;4.38;;;2.85;;
4963;SDS011;2497;47.410;9.740;2023-02-26T07:31:01;2.70;;;1.95;;
4963;SDS011;2497;47.410;9.740;2023-02-26T07:33:28;4.45;;;2.47;;
4963;SDS011;2497;47.410;9.740;2023-02-26T07:35:56;3.42;;;2.20;;
4963;SDS011;2497;47.410;9.740;2023-02-26T07:38:23;4.13;;;2.33;;
4963;SDS011;2497;47.410;9.740;2023-02-26T07:40:50;2.80;;;2.20;;
4963;SDS011;2497;47.410;9.740;2023-02-26T07:43:20;5.57;;;2.28;;
4963;SDS011;2497;47.410;9.740;2023-02-26T07:45:48;3.30;;;2.25;;
4963;SDS011;2497;47.410;9.740;2023-02-26T07:48:17;3.35;;;1.80;;
4963;SDS011;2497;47.410;9.740;2023-02-26T07:50:44;2.67;;;2.28;;
4963;SDS011;2497;47.410;9.740;2023-02-26T07:53:12;5.03;;;2.30;;
4963;SDS011;2497;47.410;9.740;2023-02-26T07:55:39;2.95;;;2.00;;
4963;SDS011;2497;47.410;9.740;2023-02-26T07:58:06;3.25;;;2.00;;
4963;SDS011;2497;47.410;9.740;2023-02-26T08:00:33;3.15;;;1.92;;
4963;SDS011;2497;47.410;9.740;2023-02-26T08:03:01;4.88;;;2.33;;
4963;SDS011;2497;47.410;9.740;2023-02-26T08:05:29;5.35;;;2.60;;
4963;SDS011;2497;47.410;9.740;2023-02-26T08:07:56;2.70;;;1.65;;
4963;SDS011;2497;47.410;9.740;2023-02-26T08:10:26;3.95;;;2.22;;
4963;SDS011;2497;47.410;9.740;2023-02-26T08:12:53;3.00;;;2.08;;
4963;SDS011;2497;47.410;9.740;2023-02-26T08:15:20;4.70;;;2.22;;
4963;SDS011;2497;47.410;9.740;2023-02-26T08:17:47;4.03;;;2.13;;
4963;SDS011;2497;47.410;9.740;2023-02-26T08:20:17;7.78;;;2.78;;
4963;SDS011;2497;47.410;9.740;2023-02-26T08:22:45;4.25;;;2.00;;
4963;SDS011;2497;47.410;9.740;2023-02-26T08:25:12;3.33;;;2.30;;
4963;SDS011;2497;47.410;9.740;2023-02-26T08:27:40;4.25;;;2.45;;
4963;SDS011;2497;47.410;9.740;2023-02-26T08:30:07;2.85;;;2.20;;
4963;SDS011;2497;47.410;9.740;2023-02-26T08:32:35;2.15;;;1.70;;
4963;SDS011;2497;47.410;9.740;2023-02-26T08:35:06;3.33;;;2.00;;
4963;SDS011;2497;47.410;9.740;2023-02-26T08:37:33;7.43;;;2.55;;
4963;SDS011;2497;47.410;9.740;2023-02-26T08:40:02;3.15;;;2.10;;
4963;SDS011;2497;47.410;9.740;2023-02-26T08:42:30;4.22;;;2.92;;
4963;SDS011;2497;47.410;9.740;2023-02-26T08:44:59;4.50;;;2.58;;
4963;SDS011;2497;47.410;9.740;2023-02-26T08:47:27;9.70;;;2.28;;
4963;SDS011;2497;47.410;9.740;2023-02-26T08:49:54;13.13;;;2.90;;
4963;SDS011;2497;47.410;9.740;2023-02-26T08:52:22;4.53;;;2.45;;
4963;SDS011;2497;47.410;9.740;2023-02-26T08:54:50;3.47;;;2.55;;
4963;SDS011;2497;47.410;9.740;2023-02-26T08:57:19;3.60;;;2.05;;
4963;SDS011;2497;47.410;9.740;2023-02-26T08:59:46;3.20;;;2.20;;
4963;SDS011;2497;47.410;9.740;2023-02-26T09:02:13;3.10;;;2.20;;
4963;SDS011;2497;47.410;9.740;2023-02-26T09:04:41;5.47;;;2.15;;
4963;SDS011;2497;47.410;9.740;2023-02-26T09:07:08;5.45;;;2.78;;
4963;SDS011;2497;47.410;9.740;2023-02-26T09:09:35;3.33;;;2.40;;
4963;SDS011;2497;47.410;9.740;2023-02-26T09:12:02;5.28;;;1.80;;
4963;SDS011;2497;47.410;9.740;2023-02-26T09:14:31;3.10;;;1.92;;
4963;SDS011;2497;47.410;9.740;2023-02-26T09:17:00;2.45;;;1.70;;
4963;SDS011;2497;47.410;9.740;2023-02-26T09:19:27;3.20;;;1.98;;
4963;SDS011;2497;47.410;9.740;2023-02-26T09:21:54;1.98;;;1.73;;
4963;SDS011;2497;47.410;9.740;2023-02-26T09:24:21;6.28;;;3.25;;
4963;SDS011;2497;47.410;9.740;2023-02-26T09:26:49;10.63;;;3.50;;
4963;SDS011;2497;47.410;9.740;2023-02-26T09:29:16;3.95;;;2.40;;
4963;SDS011;2497;47.410;9.740;2023-02-26T09:31:45;2.70;;;2.13;;
4963;SDS011;2497;47.410;9.740;2023-02-26T09:34:12;3.97;;;2.30;;
4963;SDS011;2497;47.410;9.740;2023-02-26T09:36:39;6.13;;;2.27;;
4963;SDS011;2497;47.410;9.740;2023-02-26T09:39:08;4.70;;;2.30;;
4963;SDS011;2497;47.410;9.740;2023-02-26T09:41:36;2.53;;;1.87;;
4963;SDS011;2497;47.410;9.740;2023-02-26T09:44:12;4.03;;;2.50;;
4963;SDS011;2497;47.410;9.740;2023-02-26T09:46:49;9.30;;;2.30;;
4963;SDS011;2497;47.410;9.740;2023-02-26T09:49:27;8.90;;;2.77;;
4963;SDS011;2497;47.410;9.740;2023-02-26T09:52:03;4.67;;;2.70;;
4963;SDS011;2497;47.410;9.740;2023-02-26T09:54:40;3.50;;;2.37;;
4963;SDS011;2497;47.410;9.740;2023-02-26T09:57:12;4.23;;;2.90;;
4963;SDS011;2497;47.410;9.740;2023-02-26T09:59:46;5.37;;;2.63;;
4963;SDS011;2497;47.410;9.740;2023-02-26T10:02:15;4.57;;;2.80;;
4963;SDS011;2497;47.410;9.740;2023-02-26T10:04:48;5.53;;;3.00;;
4963;SDS011;2497;47.410;9.740;2023-02-26T10:07:24;3.57;;;1.90;;
4963;SDS011;2497;47.410;9.740;2023-02-26T10:10:01;28.07;;;2.67;;
4963;SDS011;2497;47.410;9.740;2023-02-26T10:12:39;2.27;;;1.80;;
4963;SDS011;2497;47.410;9.740;2023-02-26T10:15:10;3.67;;;2.10;;
4963;SDS011;2497;47.410;9.740;2023-02-26T10:17:45;3.13;;;2.23;;
4963;SDS011;2497;47.410;9.740;2023-02-26T10:20:22;3.70;;;1.97;;
4963;SDS011;2497;47.410;9.740;2023-02-26T10:22:55;2.87;;;2.57;;
4963;SDS011;2497;47.410;9.740;2023-02-26T10:25:28;9.13;;;2.20;;
4963;SDS011;2497;47.410;9.740;2023-02-26T10:28:00;5.77;;;2.60;;
4963;SDS011;2497;47.410;9.740;2023-02-26T10:30:34;2.10;;;1.90;;
4963;SDS011;2497;47.410;9.740;2023-02-26T10:33:09;10.77;;;3.10;;
4963;SDS011;2497;47.410;9.740;2023-02-26T10:35:41;5.90;;;2.57;;
4963;SDS011;2497;47.410;9.740;2023-02-26T10:38:14;3.53;;;2.80;;
4963;SDS011;2497;47.410;9.740;2023-02-26T10:40:46;9.23;;;2.43;;
4963;SDS011;2497;47.410;9.740;2023-02-26T10:43:18;2.70;;;2.00;;
4963;SDS011;2497;47.410;9.740;2023-02-26T10:45:52;4.60;;;1.97;;
4963;SDS011;2497;47.410;9.740;2023-02-26T10:48:38;2.33;;;1.83;;
4963;SDS011;2497;47.410;9.740;2023-02-26T10:51:16;7.13;;;2.13;;
4963;SDS011;2497;47.410;9.740;2023-02-26T10:53:46;4.87;;;2.10;;
4963;SDS011;2497;47.410;9.740;2023-02-26T10:56:17;4.37;;;2.00;;
4963;SDS011;2497;47.410;9.740;2023-02-26T10:58:47;3.40;;;2.20;;
4963;SDS011;2497;47.410;9.740;2023-02-26T11:01:17;8.47;;;2.47;;
4963;SDS011;2497;47.410;9.740;2023-02-26T11:03:48;2.40;;;1.53;;
4963;SDS011;2497;47.410;9.740;2023-02-26T11:06:23;2.97;;;2.00;;
4963;SDS011;2497;47.410;9.740;2023-02-26T11:08:54;1.90;;;1.77;;
4963;SDS011;2497;47.410;9.740;2023-02-26T11:11:36;4.17;;;1.97;;
4963;SDS011;2497;47.410;9.740;2023-02-26T11:14:10;1.73;;;1.57;;
4963;SDS011;2497;47.410;9.740;2023-02-26T11:16:45;6.33;;;2.10;;
4963;SDS011;2497;47.410;9.740;2023-02-26T11:19:18;7.07;;;2.00;;
4963;SDS011;2497;47.410;9.740;2023-02-26T11:21:50;2.93;;;2.00;;
4963;SDS011;2497;47.410;9.740;2023-02-26T11:24:20;3.00;;;1.30;;
4963;SDS011;2497;47.410;9.740;2023-02-26T11:26:56;8.00;;;2.50;;
4963;SDS011;2497;47.410;9.740;2023-02-26T11:29:31;4.80;;;1.73;;
4963;SDS011;2497;47.410;9.740;2023-02-26T11:32:03;3.87;;;1.73;;
4963;SDS011;2497;47.410;9.740;2023-02-26T11:34:33;2.50;;;1.90;;
4963;SDS011;2497;47.410;9.740;2023-02-26T11:37:02;1.97;;;1.47;;
4963;SDS011;2497;47.410;9.740;2023-02-26T11:39:32;2.30;;;2.00;;
4963;SDS011;2497;47.410;9.740;2023-02-26T11:42:01;2.00;;;1.60;;
4963;SDS011;2497;47.410;9.740;2023-02-26T11:44:32;3.17;;;2.00;;
4963;SDS011;2497;47.410;9.740;2023-02-26T11:47:10;2.10;;;1.60;;
4963;SDS011;2497;47.410;9.740;2023-02-26T11:49:42;5.10;;;1.93;;
4963;SDS011;2497;47.410;9.740;2023-02-26T11:52:16;2.60;;;1.77;;
4963;SDS011;2497;47.410;9.740;2023-02-26T11:54:53;2.50;;;1.90;;
4963;SDS011;2497;47.410;9.740;2023-02-26T11:57:25;3.53;;;2.07;;
4963;SDS011;2497;47.410;9.740;2023-02-26T11:59:54;8.03;;;2.70;;
4963;SDS011;2497;47.410;9.740;2023-02-26T12:02:25;15.13;;;4.10;;
4963;SDS011;2497;47.410;9.740;2023-02-26T12:05:03;7.07;;;2.87;;
4963;SDS011;2497;47.410;9.740;2023-02-26T12:07:32;6.70;;;1.93;;
4963;SDS011;2497;47.410;9.740;2023-02-26T12:09:59;2.97;;;1.70;;
4963;SDS011;2497;47.410;9.740;2023-02-26T12:12:33;3.70;;;1.90;;
4963;SDS011;2497;47.410;9.740;2023-02-26T12:15:22;1.70;;;1.53;;
4963;SDS011;2497;47.410;9.740;2023-02-26T12:18:07;3.17;;;2.17;;
4963;SDS011;2497;47.410;9.740;2023-02-26T12:20:54;3.33;;;2.10;;
4963;SDS011;2497;47.410;9.740;2023-02-26T12:23:35;2.10;;;1.80;;
4963;SDS011;2497;47.410;9.740;2023-02-26T12:26:29;6.90;;;2.20;;
4963;SDS011;2497;47.410;9.740;2023-02-26T12:32:09;3.70;;;2.07;;
4963;SDS011;2497;47.410;9.740;2023-02-26T12:34:52;3.20;;;1.80;;
4963;SDS011;2497;47.410;9.740;2023-02-26T12:37:47;3.07;;;1.83;;
4963;SDS011;2497;47.410;9.740;2023-02-26T12:40:33;2.23;;;1.50;;
4963;SDS011;2497;47.410;9.740;2023-02-26T12:43:10;2.60;;;1.70;;
4963;SDS011;2497;47.410;9.740;2023-02-26T12:45:50;3.30;;;2.10;;
4963;SDS011;2497;47.410;9.740;2023-02-26T12:48:37;1.83;;;1.63;;
4963;SDS011;2497;47.410;9.740;2023-02-26T12:51:29;3.30;;;1.67;;
4963;SDS011;2497;47.410;9.740;2023-02-26T12:54:11;2.53;;;1.80;;
4963;SDS011;2497;47.410;9.740;2023-02-26T12:56:59;2.90;;;2.10;;
4963;SDS011;2497;47.410;9.740;2023-02-26T12:59:47;2.50;;;2.00;;
4963;SDS011;2497;47.410;9.740;2023-02-26T13:02:46;4.40;;;2.13;;
4963;SDS011;2497;47.410;9.740;2023-02-26T13:05:49;5.17;;;2.00;;
4963;SDS011;2497;47.410;9.740;2023-02-26T13:08:33;1.73;;;1.57;;
4963;SDS011;2497;47.410;9.740;2023-02-26T13:11:13;2.37;;;1.70;;
4963;SDS011;2497;47.410;9.740;2023-02-26T13:13:51;4.63;;;2.30;;
4963;SDS011;2497;47.410;9.740;2023-02-26T13:16:32;2.10;;;1.80;;
4963;SDS011;2497;47.410;9.740;2023-02-26T13:19:09;3.47;;;2.27;;
4963;SDS011;2497;47.410;9.740;2023-02-26T13:21:44;5.40;;;1.93;;
4963;SDS011;2497;47.410;9.740;2023-02-26T13:24:16;5.87;;;2.37;;
4963;SDS011;2497;47.410;9.740;2023-02-26T13:26:49;2.10;;;1.90;;
4963;SDS011;2497;47.410;9.740;2023-02-26T13:29:19;2.60;;;1.83;;
4963;SDS011;2497;47.410;9.740;2023-02-26T13:31:54;3.97;;;2.40;;
4963;SDS011;2497;47.410;9.740;2023-02-26T13:34:30;2.53;;;2.00;;
4963;SDS011;2497;47.410;9.740;2023-02-26T13:37:03;2.30;;;1.60;;
4963;SDS011;2497;47.410;9.740;2023-02-26T13:39:35;2.90;;;2.00;;
4963;SDS011;2497;47.410;9.740;2023-02-26T13:42:17;2.00;;;1.80;;
4963;SDS011;2497;47.410;9.740;2023-02-26T13:44:53;2.33;;;1.93;;
4963;SDS011;2497;47.410;9.740;2023-02-26T13:47:45;2.63;;;1.80;;
4963;SDS011;2497;47.410;9.740;2023-02-26T13:50:25;5.33;;;1.80;;
4963;SDS011;2497;47.410;9.740;2023-02-26T13:53:00;3.10;;;2.00;;
4963;SDS011;2497;47.410;9.740;2023-02-26T13:55:39;2.57;;;1.90;;
4963;SDS011;2497;47.410;9.740;2023-02-26T13:58:24;2.20;;;1.97;;
4963;SDS011;2497;47.410;9.740;2023-02-26T14:00:59;2.63;;;1.80;;
4963;SDS011;2497;47.410;9.740;2023-02-26T14:03:33;1.97;;;1.60;;
4963;SDS011;2497;47.410;9.740;2023-02-26T14:06:07;2.43;;;2.10;;
4963;SDS011;2497;47.410;9.740;2023-02-26T14:08:50;1.70;;;1.60;;
4963;SDS011;2497;47.410;9.740;2023-02-26T14:11:25;6.50;;;2.47;;
4963;SDS011;2497;47.410;9.740;2023-02-26T14:14:15;2.03;;;1.80;;
4963;SDS011;2497;47.410;9.740;2023-02-26T14:16:48;2.60;;;1.63;;
4963;SDS011;2497;47.410;9.740;2023-02-26T14:19:21;2.30;;;1.77;;
4963;SDS011;2497;47.410;9.740;2023-02-26T14:21:52;2.60;;;2.10;;
4963;SDS011;2497;47.410;9.740;2023-02-26T14:24:24;3.67;;;1.73;;
4963;SDS011;2497;47.410;9.740;2023-02-26T14:32:52;3.23;;;2.17;;
4963;SDS011;2497;47.410;9.740;2023-02-26T14:35:32;2.30;;;1.87;;
4963;SDS011;2497;47.410;9.740;2023-02-26T14:38:13;3.00;;;1.90;;
4963;SDS011;2497;47.410;9.740;2023-02-26T14:40:47;5.10;;;2.73;;
4963;SDS011;2497;47.410;9.740;2023-02-26T14:43:24;2.70;;;2.17;;
4963;SDS011;2497;47.410;9.740;2023-02-26T14:46:02;2.10;;;1.70;;
4963;SDS011;2497;47.410;9.740;2023-02-26T14:48:31;2.47;;;1.70;;
4963;SDS011;2497;47.410;9.740;2023-02-26T14:51:03;4.43;;;1.97;;
4963;SDS011;2497;47.410;9.740;2023-02-26T14:53:49;4.90;;;2.10;;
4963;SDS011;2497;47.410;9.740;2023-02-26T14:56:30;2.47;;;1.70;;
4963;SDS011;2497;47.410;9.740;2023-02-26T14:59:20;2.93;;;2.07;;
4963;SDS011;2497;47.410;9.740;2023-02-26T15:02:00;3.90;;;2.03;;
4963;SDS011;2497;47.410;9.740;2023-02-26T15:04:47;4.30;;;2.57;;
4963;SDS011;2497;47.410;9.740;2023-02-26T15:07:31;6.20;;;2.43;;
4963;SDS011;2497;47.410;9.740;2023-02-26T15:13:07;3.20;;;2.20;;
4963;SDS011;2497;47.410;9.740;2023-02-26T15:15:54;7.40;;;2.00;;
4963;SDS011;2497;47.410;9.740;2023-02-26T15:21:15;3.10;;;1.97;;
4963;SDS011;2497;47.410;9.740;2023-02-26T15:23:49;3.77;;;1.90;;
4963;SDS011;2497;47.410;9.740;2023-02-26T15:26:21;2.70;;;2.10;;
4963;SDS011;2497;47.410;9.740;2023-02-26T15:28:52;3.83;;;2.10;;
4963;SDS011;2497;47.410;9.740;2023-02-26T15:31:27;2.67;;;2.00;;
4963;SDS011;2497;47.410;9.740;2023-02-26T15:33:59;3.63;;;2.10;;
4963;SDS011;2497;47.410;9.740;2023-02-26T15:36:28;2.30;;;1.97;;
4963;SDS011;2497;47.410;9.740;2023-02-26T15:38:57;2.77;;;1.93;;
4963;SDS011;2497;47.410;9.740;2023-02-26T15:41:28;2.90;;;1.90;;
4963;SDS011;2497;47.410;9.740;2023-02-26T15:43:59;2.43;;;2.23;;
4963;SDS011;2497;47.410;9.740;2023-02-26T15:46:30;3.23;;;2.40;;
4963;SDS011;2497;47.410;9.740;2023-02-26T15:49:04;3.23;;;2.10;;
4963;SDS011;2497;47.410;9.740;2023-02-26T15:51:35;2.73;;;2.27;;
4963;SDS011;2497;47.410;9.740;2023-02-26T15:54:03;3.27;;;2.60;;
4963;SDS011;2497;47.410;9.740;2023-02-26T15:56:33;4.77;;;3.10;;
4963;SDS011;2497;47.410;9.740;2023-02-26T15:59:06;2.87;;;2.00;;
4963;SDS011;2497;47.410;9.740;2023-02-26T16:01:39;2.30;;;1.97;;
4963;SDS011;2497;47.410;9.740;2023-02-26T16:04:11;2.47;;;1.90;;
4963;SDS011;2497;47.410;9.740;2023-02-26T16:06:43;3.03;;;1.90;;
4963;SDS011;2497;47.410;9.740;2023-02-26T16:09:16;4.03;;;2.70;;